createdAt,value
2022-08-17T00:00:43.429Z,96924.72
2022-08-17T00:05:43.718Z,96922.03
2022-08-17T00:10:48.198Z,96915.59
2022-08-17T00:15:52.105Z,96927.28
2022-08-17T00:20:58.693Z,96924.06
2022-08-17T00:26:02.765Z,96926.78
2022-08-17T00:31:08.249Z,96924.13
2022-08-17T00:36:13.971Z,96924.59
2022-08-17T00:41:20.868Z,96932.97
2022-08-17T00:46:28.223Z,96930.81
2022-08-17T00:51:38.474Z,96930.50
2022-08-17T00:56:45.701Z,96922.66
2022-08-17T01:01:51.526Z,96930.84
2022-08-17T01:06:57.867Z,96941.81
2022-08-17T01:12:01.949Z,96942.50
2022-08-17T01:17:06.250Z,96936.19
2022-08-17T01:22:20.002Z,96931.34
2022-08-17T01:27:24.573Z,96932.00
2022-08-17T01:32:30.425Z,96928.31
2022-08-17T01:37:38.173Z,96925.97
2022-08-17T01:42:47.877Z,96933.81
2022-08-17T01:47:52.421Z,96937.66
2022-08-17T01:53:10.421Z,96934.31
2022-08-17T01:58:14.480Z,96941.56
2022-08-17T02:03:18.413Z,96937.41
2022-08-17T02:08:39.283Z,96934.06
2022-08-17T02:13:57.816Z,96928.22
2022-08-17T02:19:09.067Z,96921.72
2022-08-17T02:24:18.575Z,96925.88
2022-08-17T02:29:42.094Z,96924.34
2022-08-17T02:34:45.658Z,96916.72
2022-08-17T02:39:50.612Z,96910.91
2022-08-17T02:44:54.568Z,96914.78
2022-08-17T02:49:58.174Z,96916.84
2022-08-17T02:55:03.251Z,96913.13
2022-08-17T03:00:10.823Z,96898.50
2022-08-17T03:05:17.222Z,96912.13
2022-08-17T03:10:24.724Z,96916.44
2022-08-17T03:15:30.896Z,96914.09
2022-08-17T03:20:37.053Z,96927.06
2022-08-17T03:25:46.495Z,96922.06
2022-08-17T03:30:51.161Z,96907.44
2022-08-17T03:35:54.914Z,96900.50
2022-08-17T03:41:00.111Z,96908.16
2022-08-17T03:46:28.777Z,96907.38
2022-08-17T03:51:55.915Z,96919.91
2022-08-17T03:57:04.575Z,96914.09
2022-08-17T04:02:12.527Z,96915.72
2022-08-17T04:07:16.175Z,96924.63
2022-08-17T04:12:23.478Z,96923.63
2022-08-17T04:17:30.271Z,96928.16
2022-08-17T04:22:34.472Z,96929.34
2022-08-17T04:27:39.696Z,96924.91
2022-08-17T04:33:04.973Z,96935.50
2022-08-17T04:38:13.042Z,96929.94
2022-08-17T04:43:20.622Z,96943.16
2022-08-17T04:48:29.737Z,96948.81
2022-08-17T04:53:41.459Z,96950.88
2022-08-17T04:58:48.140Z,96952.72
2022-08-17T05:03:54.741Z,96961.84
2022-08-17T05:08:58.609Z,96965.44
2022-08-17T05:14:03.835Z,96964.19
2022-08-17T05:19:07.469Z,96955.78
2022-08-17T05:24:11.005Z,96959.16
2022-08-17T05:29:36.524Z,96958.69
2022-08-17T05:34:40.069Z,96961.50
2022-08-17T05:39:43.727Z,96963.13
2022-08-17T05:44:48.727Z,96963.28
2022-08-17T05:49:53.892Z,96969.53
2022-08-17T05:55:19.487Z,96965.34
2022-08-17T06:00:31.105Z,96962.31
2022-08-17T06:06:00.050Z,96970.56
2022-08-17T06:11:12.785Z,96960.75
2022-08-17T06:16:28.199Z,96956.72
2022-08-17T06:21:43.537Z,96951.50
2022-08-17T06:26:47.714Z,96954.22
2022-08-17T06:31:52.632Z,96947.59
2022-08-17T06:37:07.819Z,96959.34
2022-08-17T06:43:02.752Z,96955.69
2022-08-17T06:47:54.270Z,96948.16
2022-08-17T06:53:05.365Z,96941.38
2022-08-17T06:58:16.443Z,96939.34
2022-08-17T07:03:33.495Z,96940.44
2022-08-17T07:08:55.157Z,96943.97
2022-08-17T07:14:17.011Z,96930.06
2022-08-17T07:19:26.096Z,96932.72
2022-08-17T07:24:39.391Z,96931.47
2022-08-17T07:29:49.544Z,96936.47
2022-08-17T07:35:23.505Z,96935.22
2022-08-17T07:40:43.743Z,96936.19
2022-08-17T07:46:32.846Z,96928.59
2022-08-17T07:51:54.899Z,96933.22
2022-08-17T07:57:03.499Z,96935.03
2022-08-17T08:02:31.919Z,96941.91
2022-08-17T08:07:43.428Z,96941.63
2022-08-17T08:12:53.714Z,96948.06
2022-08-17T08:17:59.708Z,96935.63
2022-08-17T08:23:12.529Z,96925.97
2022-08-17T08:28:27.635Z,96929.56
2022-08-17T08:33:43.075Z,96928.28
2022-08-17T08:38:59.974Z,96929.41
2022-08-17T08:45:00.064Z,96916.56
2022-08-17T08:50:05.830Z,96923.25
2022-08-17T08:55:17.917Z,96911.78
2022-08-17T09:00:24.313Z,96923.63
2022-08-17T09:05:39.320Z,96916.78
2022-08-17T09:10:57.604Z,96911.75
2022-08-17T09:16:06.863Z,96912.72
2022-08-17T09:21:19.401Z,96901.34
2022-08-17T09:26:30.547Z,96907.81
2022-08-17T09:31:47.023Z,96909.56
2022-08-17T09:37:05.740Z,96902.81
2022-08-17T09:42:19.703Z,96900.09
2022-08-17T09:47:32.028Z,96893.22
2022-08-17T09:52:36.959Z,96899.13
2022-08-17T09:58:00.175Z,96887.50
2022-08-17T10:03:29.164Z,96892.19
2022-08-17T10:08:39.979Z,96882.00
2022-08-17T10:13:53.006Z,96877.34
2022-08-17T10:19:10.628Z,96869.13
2022-08-17T10:24:34.705Z,96873.72
2022-08-17T10:29:49.131Z,96872.78
2022-08-17T10:35:16.170Z,96862.88
2022-08-17T10:40:30.584Z,96870.41
2022-08-17T10:45:47.642Z,96866.88
2022-08-17T10:51:01.514Z,96875.00
2022-08-17T10:56:26.259Z,96864.59
2022-08-17T11:02:06.468Z,96871.97
2022-08-17T11:07:18.837Z,96871.97
2022-08-17T11:12:37.547Z,96877.91
2022-08-17T11:18:07.271Z,96868.72
2022-08-17T11:23:30.560Z,96860.44
2022-08-17T11:28:46.556Z,96862.56
2022-08-17T11:33:59.423Z,96868.84
2022-08-17T11:39:07.973Z,96872.00
2022-08-17T11:44:29.234Z,96870.88
2022-08-17T11:50:12.028Z,96862.56
2022-08-17T11:55:50.804Z,96861.06
2022-08-17T12:01:03.040Z,96863.00
2022-08-17T12:06:32.949Z,96861.41
2022-08-17T12:11:55.159Z,96850.31
2022-08-17T12:17:11.256Z,96856.09
2022-08-17T12:22:23.560Z,96844.84
2022-08-17T12:27:50.731Z,96855.03
2022-08-17T12:32:55.958Z,96852.28
2022-08-17T12:38:02.359Z,96851.66
2022-08-17T12:43:08.889Z,96859.59
2022-08-17T12:48:14.140Z,96859.03
2022-08-17T12:53:24.776Z,96854.03
2022-08-17T12:58:32.889Z,96847.59
2022-08-17T13:03:41.927Z,96848.91
2022-08-17T13:08:49.054Z,96854.06
2022-08-17T13:13:56.057Z,96856.31
2022-08-17T13:19:09.139Z,96852.53
2022-08-17T13:24:20.664Z,96858.84
2022-08-17T13:29:28.239Z,96860.41
2022-08-17T13:34:38.687Z,96861.94
2022-08-17T13:40:23.542Z,96857.59
2022-08-17T13:45:44.795Z,96865.22
2022-08-17T13:51:03.596Z,96865.47
2022-08-17T13:56:33.404Z,96877.66
2022-08-17T14:01:39.327Z,96862.47
2022-08-17T14:06:52.940Z,96862.47
2022-08-17T14:12:00.292Z,96857.00
2022-08-17T14:17:05.180Z,96862.78
2022-08-17T14:22:18.981Z,96862.44
2022-08-17T14:27:26.438Z,96862.75
2022-08-17T14:32:32.276Z,96876.44
2022-08-17T14:37:36.670Z,96875.31
2022-08-17T14:42:44.004Z,96869.84
2022-08-17T14:47:49.841Z,96872.50
2022-08-17T14:52:55.283Z,96877.81
2022-08-17T14:58:01.138Z,96884.09
2022-08-17T15:03:05.485Z,96880.06
2022-08-17T15:08:09.317Z,96895.84
2022-08-17T15:13:19.873Z,96898.81
2022-08-17T15:18:23.661Z,96895.19
2022-08-17T15:23:28.228Z,96893.81
2022-08-17T15:28:33.449Z,96888.81
2022-08-17T15:33:37.342Z,96879.16
2022-08-17T15:38:41.377Z,96874.56
2022-08-17T15:43:50.963Z,96862.69
2022-08-17T15:48:59.892Z,96872.59
2022-08-17T15:54:19.325Z,96867.09
2022-08-17T15:59:31.038Z,96867.72
2022-08-17T16:04:34.914Z,96855.28
2022-08-17T16:09:39.560Z,96864.88
2022-08-17T16:14:44.959Z,96865.56
2022-08-17T16:19:48.852Z,96874.47
2022-08-17T16:24:56.999Z,96874.78
2022-08-17T16:30:03.122Z,96874.44
2022-08-17T16:35:10.020Z,96872.69
2022-08-17T16:40:14.967Z,96882.16
2022-08-17T16:45:23.493Z,96880.09
2022-08-17T16:50:27.503Z,96872.31
2022-08-17T16:55:31.538Z,96856.63
2022-08-17T17:00:37.761Z,96848.66
2022-08-17T17:05:55.074Z,96843.13
2022-08-17T17:11:10.805Z,96857.88
2022-08-17T17:16:21.906Z,96868.16
2022-08-17T17:21:33.221Z,96869.28
2022-08-17T17:27:00.172Z,96863.13
2022-08-17T17:32:17.256Z,96872.75
2022-08-17T17:37:32.433Z,96877.75
2022-08-17T17:42:39.967Z,96882.19
2022-08-17T17:47:45.659Z,96878.16
2022-08-17T17:53:00.145Z,96873.09
2022-08-17T17:58:17.034Z,96881.59
2022-08-17T18:03:33.069Z,96877.88
2022-08-17T18:08:52.940Z,96878.66
2022-08-17T18:14:15.163Z,96876.88
2022-08-17T18:19:20.983Z,96885.50
2022-08-17T18:24:32.763Z,96874.72
2022-08-17T18:29:45.451Z,96883.59
2022-08-17T18:34:53.483Z,96887.94
2022-08-17T18:39:57.014Z,96883.81
2022-08-17T18:45:00.774Z,96887.16
2022-08-17T18:55:34.251Z,96901.19
2022-08-17T19:00:43.134Z,96903.47
2022-08-17T19:05:49.803Z,96898.66
2022-08-17T19:10:59.961Z,96900.13
2022-08-17T19:16:14.881Z,96906.06
2022-08-17T19:21:24.183Z,96909.34
2022-08-17T19:26:53.541Z,96912.50
2022-08-17T19:31:59.015Z,96919.06
2022-08-17T19:37:08.886Z,96922.72
2022-08-17T19:42:23.519Z,96915.22
2022-08-17T19:47:56.055Z,96927.81
2022-08-17T19:53:08.466Z,96917.84
2022-08-17T19:58:23.637Z,96914.41
2022-08-17T20:03:32.991Z,96921.78
2022-08-17T20:08:40.844Z,96919.78
2022-08-17T20:13:50.819Z,96925.06
2022-08-17T20:19:02.804Z,96920.63
2022-08-17T20:24:22.325Z,96928.47
2022-08-17T20:29:40.118Z,96925.19
2022-08-17T20:34:47.627Z,96925.91
2022-08-17T20:40:15.364Z,96931.56
2022-08-17T20:45:53.111Z,96920.56
2022-08-17T20:51:00.801Z,96916.84
2022-08-17T20:56:04.541Z,96919.47
2022-08-17T21:01:16.265Z,96917.81
2022-08-17T21:06:23.946Z,96910.47
2022-08-17T21:12:04.584Z,96925.97
2022-08-17T21:17:38.103Z,96928.63
2022-08-17T21:22:53.901Z,96933.09
2022-08-17T21:28:04.856Z,96938.34
2022-08-17T21:33:20.773Z,96950.09
2022-08-17T21:38:36.166Z,96965.06
2022-08-17T21:43:48.768Z,96962.59
2022-08-17T21:48:57.750Z,96964.72
2022-08-17T21:54:06.124Z,96970.31
2022-08-17T21:59:25.904Z,96970.88
2022-08-17T22:04:34.075Z,96984.66
2022-08-17T22:09:43.857Z,96979.56
2022-08-17T22:14:57.528Z,96970.38
2022-08-17T22:20:07.543Z,96969.44
2022-08-17T22:25:22.036Z,96970.56
2022-08-17T22:30:35.414Z,96970.50
2022-08-17T22:35:42.731Z,96982.41
2022-08-17T22:40:49.746Z,96977.72
2022-08-17T22:45:55.685Z,96983.16
2022-08-17T22:51:14.151Z,96979.50
2022-08-17T22:56:37.641Z,96971.22
2022-08-17T23:01:42.461Z,96979.28
2022-08-17T23:06:47.416Z,96983.00
2022-08-17T23:11:55.462Z,96977.81
2022-08-17T23:17:00.882Z,96972.66
2022-08-17T23:22:09.161Z,96974.59
2022-08-17T23:27:13.053Z,96966.97
2022-08-17T23:32:18.772Z,96966.19
2022-08-17T23:37:23.587Z,96973.47
2022-08-17T23:42:27.525Z,96968.63
2022-08-17T23:47:31.166Z,96965.75
2022-08-17T23:52:37.805Z,96954.88
2022-08-17T23:57:42.082Z,96961.09
